createdAt,value
2019-04-06T00:01:54.630Z,65.10
2019-04-06T00:06:54.297Z,59.87
2019-04-06T00:11:53.942Z,64.67
2019-04-06T00:16:53.618Z,60.63
2019-04-06T00:21:53.266Z,62.83
2019-04-06T00:26:52.918Z,59.40
2019-04-06T00:31:59.235Z,62.90
2019-04-06T00:36:58.841Z,59.00
2019-04-06T00:41:58.419Z,56.87
2019-04-06T00:46:59.110Z,49.03
2019-04-06T00:51:58.699Z,62.33
2019-04-06T00:56:58.255Z,52.40
2019-04-06T01:01:57.865Z,55.07
2019-04-06T01:06:57.449Z,49.33
2019-04-06T01:11:57.028Z,58.20
2019-04-06T01:16:56.612Z,48.30
2019-04-06T01:21:56.301Z,45.87
2019-04-06T01:26:56.002Z,40.67
2019-04-06T01:31:55.587Z,43.47
2019-04-06T01:36:55.180Z,47.27
2019-04-06T01:41:55.722Z,48.13
2019-04-06T01:46:55.296Z,42.70
2019-04-06T01:51:54.943Z,44.80
2019-04-06T01:56:54.525Z,39.17
2019-04-06T02:02:06.067Z,45.07
2019-04-06T02:07:05.738Z,48.17
2019-04-06T02:12:05.322Z,49.10
2019-04-06T02:17:04.920Z,43.87
2019-04-06T02:22:04.710Z,40.30
2019-04-06T02:27:04.301Z,42.10
2019-04-06T02:32:12.224Z,37.50
2019-04-06T02:37:28.369Z,42.20
2019-04-06T02:42:32.501Z,37.97
2019-04-06T02:47:32.085Z,48.00
2019-04-06T02:52:31.688Z,43.27
2019-04-06T02:57:31.259Z,48.87
2019-04-06T03:02:30.897Z,36.60
2019-04-06T03:07:30.559Z,41.10
2019-04-06T03:12:31.621Z,36.97
2019-04-06T03:17:31.208Z,41.17
2019-04-06T03:22:30.878Z,37.00
2019-04-06T03:27:30.596Z,40.70
2019-04-06T03:32:30.443Z,36.80
2019-04-06T03:37:30.261Z,32.60
2019-04-06T03:42:30.251Z,33.17
2019-04-06T03:47:29.932Z,33.27
2019-04-06T03:52:29.624Z,37.03
2019-04-06T03:57:29.278Z,36.63
2019-04-06T04:02:28.866Z,36.03
2019-04-06T04:07:29.575Z,41.57
2019-04-06T04:12:29.171Z,39.53
2019-04-06T04:17:28.902Z,38.90
2019-04-06T04:22:28.503Z,38.10
2019-04-06T04:27:30.267Z,39.97
2019-04-06T04:32:29.440Z,39.90
2019-04-06T04:37:29.050Z,38.47
2019-04-06T04:42:28.690Z,36.70
2019-04-06T04:47:28.334Z,40.87
2019-04-06T04:52:27.939Z,33.73
2019-04-06T04:57:39.302Z,33.63
2019-04-06T05:02:28.791Z,30.90
2019-04-06T05:07:28.384Z,29.33
2019-04-06T05:12:28.007Z,31.17
2019-04-06T05:17:27.807Z,36.43
2019-04-06T05:22:27.631Z,31.80
2019-04-06T05:27:27.227Z,33.57
2019-04-06T05:32:26.830Z,29.03
2019-04-06T05:37:26.768Z,40.23
2019-04-06T05:42:26.350Z,38.23
2019-04-06T05:47:26.022Z,43.63
2019-04-06T05:52:25.608Z,36.67
2019-04-06T05:57:25.247Z,42.47
2019-04-06T06:02:24.933Z,38.53
2019-04-06T06:07:24.542Z,37.70
2019-04-06T06:12:24.123Z,36.30
2019-04-06T06:17:23.686Z,50.07
2019-04-06T06:22:23.287Z,37.80
2019-04-06T06:27:23.387Z,37.83
2019-04-06T06:32:23.097Z,36.57
2019-04-06T06:37:22.748Z,36.63
2019-04-06T06:42:22.359Z,31.33
2019-04-06T06:47:22.005Z,32.70
2019-04-06T06:52:21.738Z,35.17
2019-04-06T06:57:22.153Z,40.00
2019-04-06T07:02:23.141Z,42.23
2019-04-06T07:07:23.038Z,44.50
2019-04-06T07:12:22.699Z,41.03
2019-04-06T07:17:22.301Z,44.87
2019-04-06T07:22:22.292Z,40.33
2019-04-06T07:27:21.942Z,36.70
2019-04-06T07:32:21.623Z,39.97
2019-04-06T07:37:21.250Z,38.67
2019-04-06T07:42:20.883Z,40.43
2019-04-06T07:47:20.618Z,41.50
2019-04-06T07:52:20.311Z,40.70
2019-04-06T07:57:20.144Z,44.90
2019-04-06T08:02:21.564Z,46.60
2019-04-06T08:07:21.766Z,42.17
2019-04-06T08:12:21.358Z,44.70
2019-04-06T08:17:21.019Z,40.10
2019-04-06T08:22:20.582Z,53.20
2019-04-06T08:27:20.164Z,99.17
2019-04-06T08:32:19.851Z,58.03
2019-04-06T08:37:19.482Z,39.70
2019-04-06T08:42:19.067Z,49.50
2019-04-06T08:47:18.736Z,33.60
2019-04-06T08:52:18.315Z,36.70
2019-04-06T08:57:17.878Z,41.03
2019-04-06T09:02:17.493Z,36.37
2019-04-06T09:07:17.108Z,40.43
2019-04-06T09:12:16.654Z,42.17
2019-04-06T09:17:16.555Z,35.27
2019-04-06T09:22:16.290Z,43.47
2019-04-06T09:27:16.125Z,40.83
2019-04-06T09:32:15.783Z,37.63
2019-04-06T09:37:15.651Z,37.70
2019-04-06T09:42:15.331Z,35.17
2019-04-06T09:47:28.803Z,31.60
2019-04-06T09:52:41.028Z,32.20
2019-04-06T09:57:48.898Z,39.50
2019-04-06T10:03:06.558Z,33.00
2019-04-06T10:08:41.076Z,30.10
2019-04-06T10:13:58.621Z,30.23
2019-04-06T10:19:06.862Z,30.83
2019-04-06T10:24:17.573Z,26.33
2019-04-06T10:29:24.127Z,29.27
2019-04-06T10:34:51.712Z,26.67
2019-04-06T10:40:01.875Z,31.60
2019-04-06T10:45:11.704Z,32.00
2019-04-06T10:50:30.710Z,24.10
2019-04-06T10:55:37.593Z,29.90
2019-04-06T11:00:47.545Z,25.27
2019-04-06T11:06:01.376Z,24.97
2019-04-06T11:11:29.499Z,24.07
2019-04-06T11:16:55.031Z,21.37
2019-04-06T11:22:26.034Z,22.07
2019-04-06T11:27:54.071Z,24.43
2019-04-06T11:33:19.108Z,24.17
2019-04-06T11:38:28.042Z,27.63
2019-04-06T11:43:33.198Z,25.23
2019-04-06T11:48:50.243Z,28.57
2019-04-06T11:54:10.289Z,28.40
2019-04-06T11:59:24.295Z,26.60
2019-04-06T12:04:52.136Z,26.43
2019-04-06T12:10:09.726Z,22.20
2019-04-06T12:15:18.429Z,29.50
2019-04-06T12:20:37.255Z,25.90
2019-04-06T12:25:58.109Z,25.30
2019-04-06T12:31:07.534Z,28.67
2019-04-06T12:36:26.268Z,26.20
2019-04-06T12:41:54.235Z,33.07
2019-04-06T12:47:09.820Z,24.30
2019-04-06T12:52:24.238Z,29.73
2019-04-06T12:57:33.641Z,22.47
2019-04-06T13:02:53.289Z,23.77
2019-04-06T13:08:21.429Z,23.53
2019-04-06T13:13:27.865Z,28.20
2019-04-06T13:18:39.444Z,34.70
2019-04-06T13:23:45.158Z,28.10
2019-04-06T13:28:55.838Z,26.17
2019-04-06T13:34:03.449Z,21.10
2019-04-06T13:39:11.590Z,22.43
2019-04-06T13:44:25.014Z,19.50
2019-04-06T13:49:31.714Z,23.17
2019-04-06T13:54:38.275Z,26.60
2019-04-06T13:59:56.006Z,19.07
2019-04-06T14:05:02.254Z,28.00
2019-04-06T14:10:11.107Z,24.57
2019-04-06T14:15:48.551Z,17.50
2019-04-06T14:21:03.927Z,22.07
2019-04-06T14:26:34.534Z,16.87
2019-04-06T14:31:52.024Z,17.13
2019-04-06T14:37:12.054Z,22.67
2019-04-06T14:42:18.615Z,17.57
2019-04-06T14:47:36.226Z,19.40
2019-04-06T14:52:48.538Z,21.10
2019-04-06T14:58:11.728Z,15.33
2019-04-06T15:03:50.059Z,19.70
2019-04-06T15:08:56.738Z,19.37
2019-04-06T15:14:18.633Z,16.77
2019-04-06T15:19:27.612Z,19.17
2019-04-06T15:24:33.863Z,25.27
2019-04-06T15:29:42.242Z,19.93
2019-04-06T15:34:59.787Z,19.77
2019-04-06T15:40:16.957Z,18.97
2019-04-06T15:45:54.863Z,21.30
2019-04-06T15:51:12.263Z,15.13
2019-04-06T15:56:21.728Z,15.50
2019-04-06T16:01:38.272Z,15.43
2019-04-06T16:06:56.512Z,19.80
2019-04-06T16:12:10.689Z,16.43
2019-04-06T16:17:16.688Z,14.80
2019-04-06T16:22:21.839Z,14.80
2019-04-06T16:27:26.932Z,14.27
2019-04-06T16:32:47.860Z,14.67
2019-04-06T16:38:09.459Z,19.30
2019-04-06T16:43:32.594Z,19.63
2019-04-06T16:48:41.695Z,25.27
2019-04-06T16:54:00.647Z,17.80
2019-04-06T16:59:13.989Z,19.57
2019-04-06T17:04:30.419Z,23.43
2019-04-06T17:09:46.603Z,15.33
2019-04-06T17:14:58.468Z,15.33
2019-04-06T17:20:11.902Z,21.07
2019-04-06T17:25:20.931Z,17.30
2019-04-06T17:30:26.393Z,19.13
2019-04-06T17:35:31.607Z,22.87
2019-04-06T17:40:43.386Z,25.23
2019-04-06T17:45:53.500Z,21.50
2019-04-06T17:51:03.612Z,19.20
2019-04-06T17:56:24.996Z,26.60
2019-04-06T18:01:53.149Z,20.83
2019-04-06T18:07:10.770Z,25.80
2019-04-06T18:12:22.492Z,25.33
2019-04-06T18:17:22.406Z,24.67
2019-04-06T18:22:22.100Z,25.63
2019-04-06T18:27:21.715Z,21.37
2019-04-06T18:32:31.460Z,19.87
2019-04-06T18:37:50.320Z,23.30
2019-04-06T18:42:49.988Z,24.23
2019-04-06T18:47:49.754Z,20.57
2019-04-06T18:52:55.556Z,25.70
2019-04-06T18:57:55.240Z,23.13
2019-04-06T19:02:54.929Z,27.03
2019-04-06T19:07:54.565Z,23.00
2019-04-06T19:12:54.232Z,27.70
2019-04-06T19:17:54.335Z,23.50
2019-04-06T19:22:54.579Z,19.00
2019-04-06T19:27:54.346Z,19.33
2019-04-06T19:32:54.025Z,22.80
2019-04-06T19:37:54.223Z,21.93
2019-04-06T19:42:54.027Z,21.50
2019-04-06T19:47:54.040Z,26.03
2019-04-06T19:52:53.729Z,21.80
2019-04-06T19:57:53.403Z,17.93
2019-04-06T20:02:53.275Z,25.40
2019-04-06T20:07:52.964Z,19.23
2019-04-06T20:12:53.613Z,23.70
2019-04-06T20:17:53.810Z,23.43
2019-04-06T20:22:53.701Z,22.10
2019-04-06T20:27:54.325Z,24.23
2019-04-06T20:32:55.358Z,18.03
2019-04-06T20:37:56.332Z,26.43
2019-04-06T20:42:56.849Z,30.63
2019-04-06T20:47:57.764Z,20.37
2019-04-06T20:52:59.072Z,21.00
2019-04-06T20:57:59.646Z,24.67
2019-04-06T21:03:00.353Z,22.40
2019-04-06T21:08:02.308Z,25.27
2019-04-06T21:13:03.317Z,23.73
2019-04-06T21:18:03.678Z,17.17
2019-04-06T21:23:03.945Z,28.30
2019-04-06T21:28:05.325Z,22.20
2019-04-06T21:33:05.612Z,27.47
2019-04-06T21:38:06.657Z,24.37
2019-04-06T21:43:07.164Z,21.83
2019-04-06T21:48:08.341Z,22.17
2019-04-06T21:53:08.184Z,24.60
2019-04-06T21:58:14.252Z,32.43
2019-04-06T22:03:13.907Z,25.77
2019-04-06T22:08:14.989Z,27.63
2019-04-06T22:13:14.860Z,25.40
2019-04-06T22:18:14.615Z,25.00
2019-04-06T22:23:14.191Z,20.30
2019-04-06T22:28:14.228Z,26.97
2019-04-06T22:33:13.937Z,24.70
2019-04-06T22:38:13.728Z,23.00
2019-04-06T22:43:13.391Z,22.93
2019-04-06T22:48:13.668Z,28.70
2019-04-06T22:53:13.423Z,23.77
2019-04-06T22:58:13.087Z,22.87
2019-04-06T23:03:36.678Z,22.60
2019-04-06T23:08:37.028Z,26.53
2019-04-06T23:13:37.121Z,22.93
2019-04-06T23:18:38.028Z,27.23
2019-04-06T23:23:37.791Z,27.47
2019-04-06T23:28:37.933Z,27.93
2019-04-06T23:33:38.083Z,28.47
2019-04-06T23:38:37.926Z,27.37
2019-04-06T23:43:37.688Z,29.00
2019-04-06T23:48:38.093Z,45.00
2019-04-06T23:53:37.867Z,33.67
2019-04-06T23:58:37.528Z,22.00
